Time;durP1;ratioP1;P1;durP2;ratioP2;P2;SDS_P1;SDS_P2;PMS_P1;PMS_P2;Temp;Humidity;BMP_temperature;BMP_pressure;BME280_temperature;BME280_humidity;BME280_pressure;Samples;Min_cycle;Max_cycle;Signal;HPM_P1;HPM_P2
2023/01/01 00:00:14;;;;;;;21.67;19.83;;;16.50;99.90;;;;;;5065086;28;20467;-72
2023/01/01 00:02:42;;;;;;;24.40;19.90;;;16.50;99.90;;;;;;5055390;28;20856;-72
2023/01/01 00:05:09;;;;;;;22.90;20.73;;;16.50;99.90;;;;;;5057342;28;20486;-71
2023/01/01 00:07:37;;;;;;;21.37;19.47;;;16.40;99.90;;;;;;5070797;28;20474;-72
2023/01/01 00:12:49;;;;;;;20.90;19.03;;;16.50;99.90;;;;;;5057612;28;20462;-72
2023/01/01 00:15:15;;;;;;;19.20;17.37;;;16.50;99.90;;;;;;5070823;28;20463;-72
2023/01/01 00:17:44;;;;;;;21.37;15.97;;;16.50;99.90;;;;;;5064278;28;20466;-71
2023/01/01 00:20:11;;;;;;;16.50;15.40;;;16.50;99.90;;;;;;5057554;28;20560;-72
2023/01/01 00:22:38;;;;;;;18.47;16.97;;;16.50;99.90;;;;;;5062176;28;21067;-73
2023/01/01 00:25:06;;;;;;;17.90;16.27;;;16.50;99.90;;;;;;5056770;28;20490;-71
2023/01/01 00:27:32;;;;;;;16.50;15.10;;;16.40;99.90;;;;;;5065396;28;20721;-72
2023/01/01 00:29:59;;;;;;;14.90;14.00;;;16.40;99.90;;;;;;5070689;28;20462;-71
2023/01/01 00:32:26;;;;;;;16.10;14.93;;;16.30;99.90;;;;;;5054698;28;20471;-71
2023/01/01 00:34:55;;;;;;;15.17;14.10;;;16.20;99.90;;;;;;5058360;28;20910;-71
2023/01/01 00:37:21;;;;;;;15.07;14.20;;;16.20;99.90;;;;;;5015152;28;21028;-71
2023/01/01 00:39:48;;;;;;;14.73;14.00;;;16.20;99.90;;;;;;5060620;28;20471;-72
2023/01/01 00:42:15;;;;;;;15.77;14.77;;;16.20;99.90;;;;;;5059232;28;20822;-70
2023/01/01 00:44:42;;;;;;;15.00;13.93;;;16.20;99.90;;;;;;5058317;28;20989;-72
2023/01/01 00:47:08;;;;;;;15.10;13.90;;;16.20;99.90;;;;;;5058143;28;20461;-74
2023/01/01 00:49:36;;;;;;;15.23;14.00;;;16.10;99.90;;;;;;5056101;28;20459;-71
2023/01/01 00:52:05;;;;;;;14.60;13.70;;;16.10;99.90;;;;;;5051718;28;20468;-72
2023/01/01 00:54:31;;;;;;;14.00;13.20;;;16.10;99.90;;;;;;5057726;28;20478;-74
2023/01/01 00:56:58;;;;;;;15.17;14.17;;;16.10;99.90;;;;;;5055213;28;21161;-72
2023/01/01 00:59:25;;;;;;;14.93;13.73;;;16.00;99.90;;;;;;5056707;28;20571;-71
2023/01/01 01:01:51;;;;;;;15.17;14.07;;;16.00;99.90;;;;;;5054860;28;20499;-72
2023/01/01 01:04:18;;;;;;;15.97;13.83;;;16.00;99.90;;;;;;5057848;28;20487;-71
2023/01/01 01:06:45;;;;;;;14.90;13.83;;;16.00;99.90;;;;;;5066271;28;20466;-71
2023/01/01 01:09:13;;;;;;;14.10;13.23;;;16.00;99.90;;;;;;5059424;28;20982;-71
2023/01/01 01:11:40;;;;;;;15.90;14.27;;;16.00;99.90;;;;;;5062974;28;20477;-75
2023/01/01 01:14:07;;;;;;;16.80;13.60;;;16.00;99.90;;;;;;5059359;28;20479;-72
2023/01/01 01:16:35;;;;;;;15.30;14.20;;;16.00;99.90;;;;;;5056508;28;20472;-71
2023/01/01 01:19:04;;;;;;;15.40;14.30;;;16.00;99.90;;;;;;5057312;28;20467;-75
2023/01/01 01:21:34;;;;;;;15.50;14.47;;;16.00;99.90;;;;;;5069156;28;20830;-74
2023/01/01 01:24:03;;;;;;;16.33;14.73;;;15.90;99.90;;;;;;5066077;28;20459;-71
2023/01/01 01:26:34;;;;;;;15.90;14.77;;;15.90;99.90;;;;;;5064230;28;20470;-71
2023/01/01 01:29:01;;;;;;;15.87;14.77;;;15.90;99.90;;;;;;5059888;28;20463;-75
2023/01/01 01:31:30;;;;;;;15.30;13.97;;;15.90;99.90;;;;;;5059802;28;20471;-71
2023/01/01 01:33:57;;;;;;;14.43;13.30;;;15.90;99.90;;;;;;5060395;28;20463;-71
2023/01/01 01:36:25;;;;;;;15.27;13.87;;;15.90;99.90;;;;;;5062408;28;20472;-71
2023/01/01 01:38:52;;;;;;;14.77;13.43;;;15.90;99.90;;;;;;5063773;28;20470;-71
2023/01/01 01:41:21;;;;;;;14.50;13.40;;;15.80;99.90;;;;;;5056931;28;20465;-70
2023/01/01 01:43:56;;;;;;;14.43;13.50;;;15.80;99.90;;;;;;5067267;28;21261;-72
2023/01/01 01:46:30;;;;;;;14.60;13.57;;;15.70;99.90;;;;;;5056674;28;21002;-75
2023/01/01 01:49:00;;;;;;;13.70;13.00;;;15.70;99.90;;;;;;5062527;28;20960;-71
2023/01/01 01:51:32;;;;;;;14.67;13.73;;;15.70;99.90;;;;;;5054457;28;20469;-70
2023/01/01 01:54:04;;;;;;;14.70;13.50;;;15.70;99.90;;;;;;5056945;28;20472;-70
2023/01/01 01:56:38;;;;;;;13.80;13.00;;;15.70;99.90;;;;;;5061315;28;20492;-71
2023/01/01 01:59:06;;;;;;;14.23;13.50;;;15.60;99.90;;;;;;5054524;28;20464;-70
2023/01/01 02:01:33;;;;;;;14.63;13.83;;;15.70;99.90;;;;;;5065947;28;20524;-71
2023/01/01 02:04:02;;;;;;;15.67;14.77;;;15.70;99.90;;;;;;5060530;28;20906;-70
2023/01/01 02:06:31;;;;;;;15.10;14.10;;;15.70;99.90;;;;;;5018683;28;20475;-70
2023/01/01 02:09:00;;;;;;;15.93;14.70;;;15.60;99.90;;;;;;5065704;28;20454;-74
2023/01/01 02:11:27;;;;;;;15.50;14.30;;;15.60;99.90;;;;;;5054548;28;20467;-74
2023/01/01 02:13:55;;;;;;;15.73;14.73;;;15.60;99.90;;;;;;5069533;28;20460;-71
2023/01/01 02:16:29;;;;;;;15.40;13.97;;;15.60;99.90;;;;;;5060522;28;20952;-71
2023/01/01 02:19:02;;;;;;;15.00;14.10;;;15.60;99.90;;;;;;5063094;28;20457;-71
2023/01/01 02:21:33;;;;;;;15.77;14.80;;;15.60;99.90;;;;;;5056224;28;20463;-72
2023/01/01 02:24:27;;;;;;;15.23;14.07;;;15.50;99.90;;;;;;5053302;28;20978;-70
2023/01/01 02:26:59;;;;;;;14.77;14.07;;;15.50;99.90;;;;;;5053894;28;20821;-70
2023/01/01 02:29:37;;;;;;;16.33;15.10;;;15.50;99.90;;;;;;5064757;28;20476;-71
2023/01/01 02:32:09;;;;;;;16.37;14.70;;;15.60;99.90;;;;;;5066163;28;20470;-75
2023/01/01 02:34:40;;;;;;;15.47;14.47;;;15.60;99.90;;;;;;5058864;28;20825;-72
2023/01/01 02:37:10;;;;;;;14.60;13.70;;;15.50;99.90;;;;;;5058252;28;20455;-70
2023/01/01 02:39:41;;;;;;;14.50;13.70;;;15.50;99.90;;;;;;5053869;28;20475;-71
2023/01/01 02:42:08;;;;;;;14.87;13.97;;;15.50;99.90;;;;;;5058571;28;20495;-70
2023/01/01 02:44:43;;;;;;;14.13;13.17;;;15.50;99.90;;;;;;5062719;28;20462;-71
2023/01/01 02:47:12;;;;;;;15.33;14.20;;;15.40;99.90;;;;;;5057775;28;20469;-74
2023/01/01 02:49:47;;;;;;;14.30;13.40;;;15.40;99.90;;;;;;5061546;28;20467;-74
2023/01/01 02:52:24;;;;;;;14.30;13.50;;;15.40;99.90;;;;;;5054001;28;20467;-70
2023/01/01 02:54:58;;;;;;;14.93;13.93;;;15.40;99.90;;;;;;5059691;28;20972;-73
2023/01/01 02:57:32;;;;;;;15.60;14.50;;;15.40;99.90;;;;;;5056834;28;20459;-70
2023/01/01 03:00:26;;;;;;;15.73;14.63;;;15.30;99.90;;;;;;5051598;28;20603;-72
2023/01/01 03:03:19;;;;;;;15.10;14.10;;;15.40;99.90;;;;;;5056352;28;21005;-71
2023/01/01 03:08:48;;;;;;;14.83;13.97;;;15.30;99.90;;;;;;5055936;28;20470;-70
2023/01/01 03:11:18;;;;;;;15.60;14.50;;;15.30;99.90;;;;;;5053915;28;20463;-71
2023/01/01 03:13:52;;;;;;;15.07;14.07;;;15.40;99.90;;;;;;5056179;28;20470;-70
2023/01/01 03:16:25;;;;;;;15.73;14.33;;;15.40;99.90;;;;;;5057267;28;20465;-72
2023/01/01 03:19:10;;;;;;;14.23;13.53;;;15.40;99.90;;;;;;5066724;28;20472;-74
2023/01/01 03:21:42;;;;;;;16.00;14.33;;;15.40;99.90;;;;;;5064480;28;20529;-70
2023/01/01 03:24:13;;;;;;;14.50;13.60;;;15.30;99.90;;;;;;5060289;28;20548;-73
2023/01/01 03:26:43;;;;;;;15.97;14.73;;;15.30;99.90;;;;;;5009884;28;20820;-71
2023/01/01 03:29:12;;;;;;;14.97;14.07;;;15.30;99.90;;;;;;5065504;28;20467;-70
2023/01/01 03:31:43;;;;;;;14.57;13.50;;;15.20;99.90;;;;;;5068259;28;20904;-71
2023/01/01 03:34:16;;;;;;;15.10;14.20;;;15.20;99.90;;;;;;5062842;28;20993;-70
2023/01/01 03:36:46;;;;;;;16.47;14.90;;;15.10;99.90;;;;;;5066797;28;20455;-70
2023/01/01 03:39:18;;;;;;;14.97;13.80;;;15.20;99.90;;;;;;5070846;28;20525;-70
2023/01/01 03:41:49;;;;;;;14.80;14.00;;;15.10;99.90;;;;;;5064803;28;20467;-70
2023/01/01 03:44:21;;;;;;;15.40;14.03;;;15.20;99.90;;;;;;5070500;28;20584;-69
2023/01/01 03:46:50;;;;;;;14.63;13.73;;;15.20;99.90;;;;;;5059749;28;20479;-70
2023/01/01 03:49:18;;;;;;;13.90;13.20;;;15.20;99.90;;;;;;5058836;28;20464;-70
2023/01/01 03:51:58;;;;;;;13.90;13.10;;;15.20;99.90;;;;;;5062291;28;20460;-73
2023/01/01 03:54:33;;;;;;;14.83;13.43;;;15.20;99.90;;;;;;5057100;28;20469;-70
2023/01/01 03:57:08;;;;;;;13.60;12.90;;;15.20;99.90;;;;;;5060742;28;20473;-71
2023/01/01 03:59:43;;;;;;;15.03;13.83;;;15.20;99.90;;;;;;5066125;28;20466;-70
2023/01/01 04:02:16;;;;;;;14.63;13.73;;;15.20;99.90;;;;;;5024925;28;20458;-70
2023/01/01 04:04:44;;;;;;;15.17;14.30;;;15.20;99.90;;;;;;5062617;28;20527;-71
2023/01/01 04:07:11;;;;;;;14.93;13.77;;;15.10;99.90;;;;;;5062584;28;20466;-70
2023/01/01 04:09:43;;;;;;;15.30;14.27;;;15.00;99.90;;;;;;5017955;28;20473;-70
2023/01/01 04:12:12;;;;;;;15.03;14.03;;;15.00;99.90;;;;;;5067348;28;21196;-71
2023/01/01 04:14:41;;;;;;;14.90;13.90;;;15.00;99.90;;;;;;5070759;28;20461;-72
2023/01/01 04:17:09;;;;;;;14.80;13.70;;;15.00;99.90;;;;;;5066401;28;20458;-72
2023/01/01 04:19:37;;;;;;;14.93;13.40;;;15.00;99.90;;;;;;5057156;28;20459;-70
2023/01/01 04:22:06;;;;;;;13.93;13.17;;;15.00;99.90;;;;;;5057317;28;20475;-70
2023/01/01 04:24:33;;;;;;;14.13;13.20;;;15.00;99.90;;;;;;5061645;28;20951;-70
2023/01/01 04:26:59;;;;;;;14.60;13.70;;;14.90;99.90;;;;;;5062566;28;20501;-70
2023/01/01 04:29:26;;;;;;;14.43;13.33;;;14.90;99.90;;;;;;5071296;28;20814;-70
2023/01/01 04:31:53;;;;;;;14.10;13.30;;;14.90;99.90;;;;;;5060183;28;20459;-75
2023/01/01 04:34:20;;;;;;;14.30;13.30;;;14.90;99.90;;;;;;5064330;28;20474;-70
2023/01/01 04:36:50;;;;;;;13.60;12.60;;;14.90;99.90;;;;;;5056814;28;20463;-70
2023/01/01 04:39:18;;;;;;;13.70;13.10;;;14.90;99.90;;;;;;5057103;28;20463;-75
2023/01/01 04:41:47;;;;;;;14.30;13.20;;;14.90;99.90;;;;;;5058577;28;20522;-70
2023/01/01 04:44:14;;;;;;;15.47;14.10;;;14.90;99.90;;;;;;5062172;28;20487;-70
2023/01/01 04:46:41;;;;;;;13.13;12.37;;;14.80;99.90;;;;;;5059716;28;20466;-70
2023/01/01 04:49:08;;;;;;;14.20;13.00;;;14.90;99.90;;;;;;5062196;28;21021;-70
2023/01/01 04:51:36;;;;;;;13.80;12.90;;;14.80;99.90;;;;;;5062149;28;20481;-72
2023/01/01 04:54:04;;;;;;;14.87;13.47;;;14.80;99.90;;;;;;5061185;28;20837;-69
2023/01/01 04:56:31;;;;;;;14.00;13.07;;;14.70;99.90;;;;;;5062522;28;20463;-70
2023/01/01 04:58:58;;;;;;;14.47;13.17;;;14.70;99.90;;;;;;5054945;28;20455;-70
2023/01/01 05:01:26;;;;;;;13.50;12.80;;;12.90;99.90;;;;;;5062452;28;20523;-71
2023/01/01 05:03:54;;;;;;;14.17;13.30;;;14.50;99.90;;;;;;5063703;28;20925;-70
2023/01/01 05:06:22;;;;;;;13.40;12.57;;;14.50;99.90;;;;;;5064607;28;20483;-70
2023/01/01 05:08:51;;;;;;;13.57;12.83;;;14.50;99.90;;;;;;5063019;28;20645;-72
2023/01/01 05:11:20;;;;;;;13.70;12.90;;;14.50;99.90;;;;;;5060258;28;20460;-73
2023/01/01 05:13:48;;;;;;;13.70;12.90;;;14.50;99.90;;;;;;5059036;28;20472;-70
2023/01/01 05:16:17;;;;;;;13.73;12.93;;;14.50;99.90;;;;;;5065318;28;20824;-75
2023/01/01 05:18:45;;;;;;;14.23;13.10;;;14.50;99.90;;;;;;5064279;28;20468;-71
2023/01/01 05:21:13;;;;;;;13.03;12.33;;;14.60;99.90;;;;;;5052928;28;20463;-72
2023/01/01 05:23:40;;;;;;;13.70;12.70;;;14.60;99.90;;;;;;5057790;28;20702;-70
2023/01/01 05:26:11;;;;;;;13.87;12.97;;;14.60;99.90;;;;;;5052713;28;21040;-70
2023/01/01 05:28:40;;;;;;;13.30;12.50;;;14.60;99.90;;;;;;5053647;28;20490;-70
2023/01/01 05:31:08;;;;;;;15.03;13.83;;;14.70;99.90;;;;;;5057957;28;20465;-69
2023/01/01 05:33:36;;;;;;;12.43;11.70;;;14.70;99.90;;;;;;5059961;28;20474;-70
2023/01/01 05:36:04;;;;;;;13.27;12.47;;;14.70;99.90;;;;;;5062815;28;20489;-72
2023/01/01 05:38:30;;;;;;;13.20;12.10;;;14.70;99.90;;;;;;5062214;28;20992;-70
2023/01/01 05:40:57;;;;;;;14.63;13.27;;;14.70;99.90;;;;;;5065544;28;20469;-70
2023/01/01 05:43:24;;;;;;;14.17;13.10;;;14.70;99.90;;;;;;5062640;28;20486;-70
2023/01/01 05:46:01;;;;;;;13.60;12.57;;;14.60;99.90;;;;;;5060763;28;20470;-72
2023/01/01 05:48:28;;;;;;;13.87;12.97;;;14.60;99.90;;;;;;5061969;28;20462;-70
2023/01/01 05:51:02;;;;;;;14.27;13.27;;;14.60;99.90;;;;;;5052566;28;20470;-70
2023/01/01 05:53:29;;;;;;;13.00;12.37;;;14.70;99.90;;;;;;5063885;28;20562;-70
2023/01/01 05:55:56;;;;;;;13.63;12.93;;;14.70;99.90;;;;;;5065309;28;20501;-73
2023/01/01 05:58:23;;;;;;;14.20;13.17;;;14.70;99.90;;;;;;5056990;28;20468;-69
2023/01/01 06:00:50;;;;;;;13.63;12.43;;;14.70;99.90;;;;;;5059920;28;20516;-70
2023/01/01 06:03:18;;;;;;;14.37;13.17;;;14.70;99.90;;;;;;5063580;28;20487;-69
2023/01/01 06:05:45;;;;;;;14.00;12.90;;;14.60;99.90;;;;;;5064029;28;20494;-74
2023/01/01 06:08:12;;;;;;;14.67;13.63;;;14.70;99.90;;;;;;5061664;28;20844;-70
2023/01/01 06:10:39;;;;;;;13.83;12.60;;;14.70;99.90;;;;;;5062651;28;20466;-70
2023/01/01 06:13:06;;;;;;;15.47;14.10;;;14.70;99.90;;;;;;5060279;28;20464;-70
2023/01/01 06:15:33;;;;;;;14.47;13.50;;;14.70;99.90;;;;;;5062833;28;20469;-73
2023/01/01 06:17:59;;;;;;;14.43;13.20;;;14.80;99.90;;;;;;5070623;28;20458;-71
2023/01/01 06:20:27;;;;;;;13.90;13.00;;;14.70;99.90;;;;;;5063341;28;20473;-70
2023/01/01 06:22:54;;;;;;;14.27;13.17;;;14.70;99.90;;;;;;5053311;28;20475;-73
2023/01/01 06:25:22;;;;;;;14.97;13.80;;;14.70;99.90;;;;;;5057267;28;20976;-69
2023/01/01 06:27:49;;;;;;;13.80;13.00;;;14.70;99.90;;;;;;5057235;28;20471;-71
2023/01/01 06:30:16;;;;;;;14.57;13.37;;;14.70;99.90;;;;;;5058335;28;20513;-69
2023/01/01 06:32:42;;;;;;;14.33;13.43;;;14.70;99.90;;;;;;5058896;28;20460;-73
2023/01/01 06:35:10;;;;;;;14.13;13.43;;;14.70;99.90;;;;;;5062186;28;20845;-70
2023/01/01 06:37:38;;;;;;;13.93;13.13;;;14.70;99.90;;;;;;5060894;28;20463;-70
2023/01/01 06:40:06;;;;;;;13.77;12.93;;;14.70;99.90;;;;;;5067492;28;20462;-70
2023/01/01 06:42:33;;;;;;;14.37;13.03;;;14.70;99.90;;;;;;5053336;28;20469;-71
2023/01/01 06:45:00;;;;;;;14.10;12.67;;;14.70;99.90;;;;;;5068923;28;20481;-70
2023/01/01 06:47:27;;;;;;;12.43;11.73;;;14.70;99.90;;;;;;5059863;28;20469;-74
2023/01/01 06:49:54;;;;;;;13.80;12.60;;;14.70;99.90;;;;;;5061511;28;20463;-74
2023/01/01 06:52:20;;;;;;;13.27;12.17;;;14.70;99.90;;;;;;5063052;28;20965;-69
2023/01/01 06:54:49;;;;;;;13.33;12.43;;;14.80;99.90;;;;;;5053946;28;20837;-73
2023/01/01 06:57:16;;;;;;;13.97;12.93;;;14.70;99.90;;;;;;5067998;28;20481;-70
2023/01/01 06:59:42;;;;;;;15.13;12.63;;;14.70;99.90;;;;;;5065196;28;21093;-73
2023/01/01 07:02:12;;;;;;;14.13;13.03;;;14.60;99.90;;;;;;5066535;28;20769;-71
2023/01/01 07:04:39;;;;;;;13.97;12.53;;;14.70;99.90;;;;;;5067451;28;20494;-69
2023/01/01 07:07:06;;;;;;;13.23;12.43;;;14.70;99.90;;;;;;5058092;28;20470;-69
2023/01/01 07:09:32;;;;;;;13.43;12.43;;;14.60;99.90;;;;;;5066826;28;20627;-72
2023/01/01 07:12:02;;;;;;;14.27;12.57;;;14.60;99.90;;;;;;5073625;28;20458;-75
2023/01/01 07:14:28;;;;;;;13.60;12.63;;;14.60;99.90;;;;;;5064534;28;20469;-70
2023/01/01 07:16:55;;;;;;;13.60;12.13;;;14.50;99.90;;;;;;5061457;28;20831;-70
2023/01/01 07:19:22;;;;;;;13.33;12.30;;;14.50;99.90;;;;;;5066030;28;20466;-70
2023/01/01 07:21:53;;;;;;;13.70;12.47;;;14.50;99.90;;;;;;5065445;28;20466;-71
2023/01/01 07:24:20;;;;;;;13.40;12.30;;;14.30;99.90;;;;;;5061403;28;20481;-70
2023/01/01 07:26:48;;;;;;;13.77;12.60;;;14.30;99.90;;;;;;5057652;28;20459;-71
2023/01/01 07:29:16;;;;;;;13.77;11.97;;;14.20;99.90;;;;;;5070385;28;20470;-72
2023/01/01 07:31:44;;;;;;;12.87;12.07;;;14.20;99.90;;;;;;5060062;28;20463;-72
2023/01/01 07:34:14;;;;;;;13.07;12.00;;;14.00;99.90;;;;;;5065588;28;20862;-70
2023/01/01 07:36:42;;;;;;;13.30;12.27;;;13.90;99.90;;;;;;5060772;28;20474;-71
2023/01/01 07:39:09;;;;;;;12.63;11.63;;;13.80;99.90;;;;;;5066118;28;20463;-74
2023/01/01 07:41:36;;;;;;;13.23;12.13;;;13.70;99.90;;;;;;5063558;28;20796;-71
2023/01/01 07:44:02;;;;;;;11.73;10.93;;;13.70;99.90;;;;;;5059367;28;20487;-71
2023/01/01 07:46:31;;;;;;;12.17;11.27;;;13.70;99.90;;;;;;5034101;28;20471;-71
2023/01/01 07:48:57;;;;;;;13.77;12.37;;;13.70;99.90;;;;;;5064500;28;20489;-71
2023/01/01 07:51:24;;;;;;;14.43;11.53;;;13.70;99.90;;;;;;5063566;28;20462;-71
2023/01/01 07:53:51;;;;;;;12.40;11.60;;;13.70;99.90;;;;;;5062244;28;20994;-71
2023/01/01 07:56:18;;;;;;;11.73;10.67;;;13.80;99.90;;;;;;5062127;28;20497;-71
2023/01/01 07:58:45;;;;;;;11.47;10.83;;;13.80;99.90;;;;;;5065762;28;20825;-71
2023/01/01 08:01:14;;;;;;;14.27;12.90;;;13.90;99.90;;;;;;5058263;28;20844;-75
2023/01/01 08:03:42;;;;;;;13.07;12.20;;;13.90;99.90;;;;;;5055853;28;20897;-71
2023/01/01 08:06:11;;;;;;;13.37;12.07;;;13.90;99.90;;;;;;5062032;28;20498;-71
2023/01/01 08:08:38;;;;;;;13.17;12.37;;;13.90;99.90;;;;;;5059607;28;20494;-72
2023/01/01 08:11:05;;;;;;;13.97;12.70;;;14.00;99.90;;;;;;5068918;28;20461;-71
2023/01/01 08:13:32;;;;;;;14.60;12.10;;;14.10;99.90;;;;;;5061864;28;20467;-73
2023/01/01 08:15:59;;;;;;;13.13;12.23;;;14.00;99.90;;;;;;5065469;28;20723;-73
2023/01/01 08:18:26;;;;;;;13.20;12.03;;;14.00;99.90;;;;;;5061512;28;20463;-74
2023/01/01 08:20:56;;;;;;;12.87;11.97;;;14.00;99.90;;;;;;5068493;28;20892;-71
2023/01/01 08:23:23;;;;;;;12.70;11.77;;;14.00;99.90;;;;;;5064259;28;20499;-73
2023/01/01 08:25:49;;;;;;;13.60;12.47;;;14.00;99.90;;;;;;5058780;28;20601;-71
2023/01/01 08:28:16;;;;;;;14.03;12.70;;;14.00;99.90;;;;;;5059082;28;20460;-72
2023/01/01 08:30:43;;;;;;;12.67;11.77;;;14.00;99.90;;;;;;5061561;28;20470;-75
2023/01/01 08:33:10;;;;;;;12.70;11.60;;;14.00;99.90;;;;;;5066867;28;20468;-72
2023/01/01 08:35:40;;;;;;;11.87;11.17;;;14.00;99.90;;;;;;5013645;28;20475;-71
2023/01/01 08:38:10;;;;;;;13.00;12.13;;;13.90;99.90;;;;;;5060434;28;20473;-72
2023/01/01 08:40:37;;;;;;;11.87;11.00;;;14.00;99.90;;;;;;5065025;28;20458;-70
2023/01/01 08:43:04;;;;;;;12.73;11.60;;;14.00;99.90;;;;;;5059871;28;20516;-75
2023/01/01 08:45:31;;;;;;;11.73;11.00;;;13.90;99.90;;;;;;5055643;28;20775;-74
2023/01/01 08:47:58;;;;;;;12.77;11.73;;;14.00;99.90;;;;;;5054851;28;20471;-74
2023/01/01 08:50:25;;;;;;;14.43;13.33;;;14.00;99.90;;;;;;5064651;28;20467;-71
2023/01/01 08:52:51;;;;;;;13.17;11.93;;;14.00;99.90;;;;;;5068276;28;20937;-71
2023/01/01 08:55:19;;;;;;;13.17;12.23;;;14.10;99.90;;;;;;5064439;28;20502;-72
2023/01/01 08:57:46;;;;;;;13.70;12.30;;;14.10;99.90;;;;;;5064741;28;20470;-73
2023/01/01 09:00:15;;;;;;;13.07;12.10;;;14.00;99.90;;;;;;5055233;28;20470;-71
2023/01/01 09:02:42;;;;;;;14.50;13.30;;;14.10;99.90;;;;;;5049645;28;20553;-71
2023/01/01 09:05:09;;;;;;;13.73;12.70;;;14.10;99.90;;;;;;5051636;28;20499;-74
2023/01/01 09:07:36;;;;;;;13.80;12.90;;;14.10;99.90;;;;;;5057996;28;20871;-71
2023/01/01 09:10:04;;;;;;;13.77;12.57;;;14.10;99.90;;;;;;5057054;28;21031;-71
2023/01/01 09:12:32;;;;;;;14.27;12.93;;;14.20;99.90;;;;;;5052553;28;20468;-71
2023/01/01 09:14:59;;;;;;;20.53;13.20;;;14.30;99.90;;;;;;5056514;28;20822;-71
2023/01/01 09:17:26;;;;;;;12.80;11.90;;;14.20;99.90;;;;;;5014740;28;20462;-72
2023/01/01 09:19:53;;;;;;;14.03;12.57;;;14.20;99.90;;;;;;5055380;28;20463;-72
2023/01/01 09:22:20;;;;;;;13.83;12.73;;;14.20;99.90;;;;;;5056962;28;20471;-71
2023/01/01 09:24:46;;;;;;;13.50;12.27;;;14.30;99.90;;;;;;5053257;28;20482;-73
2023/01/01 09:27:13;;;;;;;13.10;12.20;;;14.30;99.90;;;;;;5052218;28;21044;-73
2023/01/01 09:29:42;;;;;;;13.27;12.00;;;14.20;99.90;;;;;;5051746;28;20463;-70
2023/01/01 09:32:08;;;;;;;13.20;12.20;;;14.30;99.90;;;;;;5057473;28;20470;-74
2023/01/01 09:34:35;;;;;;;13.10;12.00;;;14.20;99.90;;;;;;5057499;28;20458;-70
2023/01/01 09:37:02;;;;;;;12.87;11.83;;;14.30;99.90;;;;;;5054250;28;20482;-71
2023/01/01 09:39:29;;;;;;;13.00;11.80;;;14.30;99.90;;;;;;5051677;28;20726;-72
2023/01/01 09:42:24;;;;;;;13.57;12.30;;;14.30;99.90;;;;;;5053928;28;20554;-73
2023/01/01 09:45:18;;;;;;;12.97;11.80;;;14.30;99.90;;;;;;5049059;28;20571;-71
2023/01/01 09:47:48;;;;;;;12.00;11.30;;;14.40;99.90;;;;;;5055016;28;20467;-70
2023/01/01 09:50:18;;;;;;;13.23;12.27;;;14.40;99.90;;;;;;5054319;28;20694;-71
2023/01/01 09:52:50;;;;;;;13.30;11.80;;;14.50;99.90;;;;;;5051601;28;20471;-71
2023/01/01 09:55:24;;;;;;;12.20;11.50;;;14.40;99.90;;;;;;5059593;28;20459;-71
2023/01/01 09:57:51;;;;;;;12.60;11.87;;;14.40;99.90;;;;;;5049245;28;20467;-70
2023/01/01 10:00:21;;;;;;;13.80;12.90;;;14.40;99.90;;;;;;5057093;28;20466;-71
2023/01/01 10:03:01;;;;;;;13.53;12.43;;;14.40;99.90;;;;;;5053179;28;20464;-70
2023/01/01 10:05:37;;;;;;;13.93;13.03;;;14.40;99.90;;;;;;5060567;28;20528;-73
2023/01/01 10:08:14;;;;;;;13.57;12.27;;;14.40;99.90;;;;;;5065128;28;20469;-69
2023/01/01 10:10:48;;;;;;;13.00;11.87;;;14.50;99.90;;;;;;5066728;28;20455;-71
2023/01/01 10:13:24;;;;;;;13.53;12.20;;;14.50;99.90;;;;;;5053717;28;20467;-71
2023/01/01 10:15:58;;;;;;;13.97;12.87;;;14.50;99.90;;;;;;5063223;28;20801;-69
2023/01/01 10:18:32;;;;;;;12.70;11.70;;;14.60;99.90;;;;;;5056755;28;20470;-70
2023/01/01 10:21:05;;;;;;;13.97;12.87;;;14.50;99.90;;;;;;5052703;28;20459;-73
2023/01/01 10:23:40;;;;;;;13.93;12.50;;;14.60;99.90;;;;;;5057818;28;20841;-72
2023/01/01 10:26:12;;;;;;;14.07;12.70;;;14.60;99.90;;;;;;5061994;28;20502;-71
2023/01/01 10:28:46;;;;;;;13.10;12.40;;;14.70;99.90;;;;;;5016632;28;20781;-70
2023/01/01 10:31:20;;;;;;;14.63;13.10;;;14.70;99.90;;;;;;5058968;28;20462;-71
2023/01/01 10:33:48;;;;;;;14.53;13.37;;;14.70;99.90;;;;;;5055387;28;20463;-70
2023/01/01 10:36:19;;;;;;;13.53;12.57;;;14.60;99.90;;;;;;5049783;28;20455;-73
2023/01/01 10:38:46;;;;;;;13.63;12.47;;;14.60;99.90;;;;;;5051699;28;20459;-70
2023/01/01 10:41:13;;;;;;;13.07;12.27;;;14.60;99.90;;;;;;5051265;28;20474;-72
2023/01/01 10:43:40;;;;;;;13.13;12.07;;;14.70;99.90;;;;;;5056211;28;20569;-74
2023/01/01 10:46:10;;;;;;;14.40;12.70;;;14.60;99.90;;;;;;5059104;28;20870;-70
2023/01/01 10:48:38;;;;;;;12.77;11.77;;;14.70;99.90;;;;;;5054575;28;20482;-70
2023/01/01 10:51:07;;;;;;;14.13;12.07;;;14.70;99.90;;;;;;5054410;28;20786;-71
2023/01/01 10:53:38;;;;;;;12.70;11.80;;;14.70;99.90;;;;;;5019370;28;20501;-73
2023/01/01 10:56:08;;;;;;;13.40;12.30;;;14.70;99.90;;;;;;5059838;28;20458;-69
2023/01/01 10:58:42;;;;;;;13.00;11.80;;;14.80;99.90;;;;;;5058748;28;20454;-74
2023/01/01 11:01:11;;;;;;;13.30;12.10;;;14.90;99.90;;;;;;5061169;28;20506;-72
2023/01/01 11:03:53;;;;;;;14.57;13.07;;;14.80;99.90;;;;;;5049890;28;20462;-74
2023/01/01 11:06:22;;;;;;;13.20;12.20;;;14.90;99.90;;;;;;5052953;28;20617;-70
2023/01/01 11:08:51;;;;;;;12.97;11.87;;;14.90;99.90;;;;;;5057439;28;21396;-70
2023/01/01 11:11:25;;;;;;;13.20;12.20;;;14.90;99.90;;;;;;5062145;28;20554;-74
2023/01/01 11:13:54;;;;;;;13.37;12.10;;;15.00;99.90;;;;;;5055400;28;20980;-70
2023/01/01 11:16:21;;;;;;;12.87;11.97;;;15.10;99.90;;;;;;5051144;28;20524;-70
2023/01/01 11:18:51;;;;;;;12.53;11.63;;;15.10;99.90;;;;;;5052106;28;20459;-69
2023/01/01 11:21:22;;;;;;;13.40;12.00;;;15.00;99.90;;;;;;5051809;28;20481;-70
2023/01/01 11:23:52;;;;;;;12.13;11.23;;;14.90;99.90;;;;;;5053754;28;20467;-70
2023/01/01 11:26:25;;;;;;;13.60;12.00;;;14.90;99.90;;;;;;5067776;28;20490;-70
2023/01/01 11:29:01;;;;;;;14.37;12.30;;;14.80;99.90;;;;;;5053119;28;21163;-75
2023/01/01 11:31:30;;;;;;;12.63;11.83;;;14.90;99.90;;;;;;5055466;28;20806;-73
2023/01/01 11:33:59;;;;;;;13.63;12.60;;;14.90;99.90;;;;;;5015760;28;20474;-70
2023/01/01 11:36:29;;;;;;;12.77;11.87;;;14.90;99.90;;;;;;5016993;28;20451;-72
2023/01/01 11:39:19;;;;;;;13.57;12.30;;;15.00;99.90;;;;;;5070861;28;20470;-72
2023/01/01 11:41:48;;;;;;;14.33;13.27;;;15.00;99.90;;;;;;5060370;28;20455;-72
2023/01/01 11:44:27;;;;;;;13.50;12.40;;;14.90;99.90;;;;;;5063917;28;20504;-74
2023/01/01 11:46:55;;;;;;;13.07;12.07;;;14.90;99.90;;;;;;5058555;28;20529;-71
2023/01/01 11:49:28;;;;;;;19.47;12.73;;;15.00;99.90;;;;;;5062370;28;20459;-69
2023/01/01 11:51:55;;;;;;;13.97;12.50;;;15.10;99.90;;;;;;5056494;28;20474;-75
2023/01/01 11:54:29;;;;;;;13.70;12.90;;;15.10;99.90;;;;;;5053705;28;21136;-70
2023/01/01 11:57:02;;;;;;;12.93;12.03;;;15.00;99.90;;;;;;5058015;28;20473;-73
2023/01/01 11:59:37;;;;;;;14.07;12.87;;;15.00;99.90;;;;;;5064428;28;20466;-72
2023/01/01 12:02:09;;;;;;;13.07;12.27;;;15.00;99.90;;;;;;5024557;28;21001;-70
2023/01/01 12:04:43;;;;;;;13.60;12.60;;;15.00;99.90;;;;;;5064361;28;20994;-70
2023/01/01 12:07:14;;;;;;;13.63;12.63;;;15.00;99.90;;;;;;5056528;28;20511;-70
2023/01/01 12:09:45;;;;;;;13.43;12.33;;;15.00;99.90;;;;;;5056013;28;20471;-70
2023/01/01 12:12:20;;;;;;;12.67;11.97;;;14.90;99.90;;;;;;5055420;28;20910;-70
2023/01/01 12:14:54;;;;;;;13.20;12.20;;;15.00;99.90;;;;;;5053026;28;20551;-72
2023/01/01 12:17:26;;;;;;;13.60;12.43;;;15.00;99.90;;;;;;5064327;28;21014;-69
2023/01/01 12:20:00;;;;;;;14.40;13.30;;;15.00;99.90;;;;;;5059898;28;20479;-74
2023/01/01 12:22:28;;;;;;;12.97;11.93;;;14.90;99.90;;;;;;5055512;28;20463;-70
2023/01/01 12:24:57;;;;;;;14.20;12.90;;;14.90;99.90;;;;;;5059977;28;20478;-69
2023/01/01 12:27:40;;;;;;;13.27;12.33;;;14.90;99.90;;;;;;5057377;28;20464;-71
2023/01/01 12:30:15;;;;;;;12.70;11.80;;;14.90;99.90;;;;;;5058517;28;20830;-73
2023/01/01 12:33:04;;;;;;;13.47;12.43;;;14.90;99.90;;;;;;5023751;28;20465;-70
2023/01/01 12:35:54;;;;;;;13.60;12.40;;;14.80;99.90;;;;;;5055174;28;20471;-76
2023/01/01 12:38:35;;;;;;;15.40;12.80;;;14.80;99.90;;;;;;5012691;28;20459;-71
2023/01/01 12:41:08;;;;;;;13.90;12.70;;;14.90;99.90;;;;;;5062476;28;20475;-71
2023/01/01 12:43:48;;;;;;;13.30;12.50;;;15.00;99.90;;;;;;5053585;28;20486;-71
2023/01/01 12:46:37;;;;;;;13.20;12.00;;;14.80;99.90;;;;;;5072168;28;20496;-69